sensor_id;sensor_type;location;lat;lon;timestamp;P1;durP1;ratioP1;P2;durP2;ratioP2
14294;SDS011;7231;59.370;18.016;2024-02-23T00:01:27;42.70;;;20.08;;
14294;SDS011;7231;59.370;18.016;2024-02-23T00:03:56;37.03;;;18.33;;
14294;SDS011;7231;59.370;18.016;2024-02-23T00:06:25;37.85;;;19.05;;
14294;SDS011;7231;59.370;18.016;2024-02-23T00:08:54;36.75;;;19.38;;
14294;SDS011;7231;59.370;18.016;2024-02-23T00:11:23;37.60;;;20.05;;
14294;SDS011;7231;59.370;18.016;2024-02-23T00:13:51;40.92;;;19.05;;
14294;SDS011;7231;59.370;18.016;2024-02-23T00:16:19;36.55;;;20.05;;
14294;SDS011;7231;59.370;18.016;2024-02-23T00:18:47;37.38;;;19.45;;
14294;SDS011;7231;59.370;18.016;2024-02-23T00:21:16;37.42;;;19.38;;
14294;SDS011;7231;59.370;18.016;2024-02-23T00:23:45;41.67;;;19.88;;
14294;SDS011;7231;59.370;18.016;2024-02-23T00:26:13;38.88;;;19.75;;
14294;SDS011;7231;59.370;18.016;2024-02-23T00:28:41;37.28;;;19.50;;
14294;SDS011;7231;59.370;18.016;2024-02-23T00:31:10;41.80;;;21.02;;
14294;SDS011;7231;59.370;18.016;2024-02-23T00:33:38;44.10;;;21.45;;
14294;SDS011;7231;59.370;18.016;2024-02-23T00:36:08;37.75;;;19.88;;
14294;SDS011;7231;59.370;18.016;2024-02-23T00:38:37;45.72;;;20.58;;
14294;SDS011;7231;59.370;18.016;2024-02-23T00:41:06;43.33;;;20.20;;
14294;SDS011;7231;59.370;18.016;2024-02-23T00:43:37;42.47;;;18.75;;
14294;SDS011;7231;59.370;18.016;2024-02-23T00:46:06;42.28;;;21.13;;
14294;SDS011;7231;59.370;18.016;2024-02-23T00:48:34;41.83;;;20.90;;
14294;SDS011;7231;59.370;18.016;2024-02-23T00:51:03;42.88;;;21.15;;
14294;SDS011;7231;59.370;18.016;2024-02-23T00:53:31;49.03;;;22.38;;
14294;SDS011;7231;59.370;18.016;2024-02-23T00:55:59;44.53;;;21.00;;
14294;SDS011;7231;59.370;18.016;2024-02-23T00:58:29;39.25;;;21.52;;
14294;SDS011;7231;59.370;18.016;2024-02-23T01:00:58;47.50;;;22.20;;
14294;SDS011;7231;59.370;18.016;2024-02-23T01:03:27;47.08;;;22.35;;
14294;SDS011;7231;59.370;18.016;2024-02-23T01:05:55;44.50;;;22.25;;
14294;SDS011;7231;59.370;18.016;2024-02-23T01:08:23;44.08;;;22.52;;
14294;SDS011;7231;59.370;18.016;2024-02-23T01:10:51;48.17;;;22.75;;
14294;SDS011;7231;59.370;18.016;2024-02-23T01:13:20;44.63;;;22.20;;
14294;SDS011;7231;59.370;18.016;2024-02-23T01:15:50;51.88;;;23.88;;
14294;SDS011;7231;59.370;18.016;2024-02-23T01:18:18;52.08;;;22.90;;
14294;SDS011;7231;59.370;18.016;2024-02-23T01:20:46;53.45;;;22.42;;
14294;SDS011;7231;59.370;18.016;2024-02-23T01:23:14;43.95;;;20.73;;
14294;SDS011;7231;59.370;18.016;2024-02-23T01:25:42;49.17;;;22.50;;
14294;SDS011;7231;59.370;18.016;2024-02-23T01:28:11;47.53;;;22.52;;
14294;SDS011;7231;59.370;18.016;2024-02-23T01:30:39;45.95;;;21.80;;
14294;SDS011;7231;59.370;18.016;2024-02-23T01:33:08;45.83;;;20.67;;
14294;SDS011;7231;59.370;18.016;2024-02-23T01:35:37;41.13;;;19.38;;
14294;SDS011;7231;59.370;18.016;2024-02-23T01:38:05;46.05;;;21.17;;
14294;SDS011;7231;59.370;18.016;2024-02-23T01:40:36;40.88;;;20.15;;
14294;SDS011;7231;59.370;18.016;2024-02-23T01:43:04;40.75;;;20.08;;
14294;SDS011;7231;59.370;18.016;2024-02-23T01:45:33;37.95;;;20.55;;
14294;SDS011;7231;59.370;18.016;2024-02-23T01:48:01;38.83;;;19.98;;
14294;SDS011;7231;59.370;18.016;2024-02-23T01:50:31;39.83;;;20.08;;
14294;SDS011;7231;59.370;18.016;2024-02-23T01:53:00;37.08;;;20.08;;
14294;SDS011;7231;59.370;18.016;2024-02-23T01:55:30;41.33;;;20.25;;
14294;SDS011;7231;59.370;18.016;2024-02-23T01:58:02;36.97;;;19.80;;
14294;SDS011;7231;59.370;18.016;2024-02-23T02:00:34;43.25;;;21.35;;
14294;SDS011;7231;59.370;18.016;2024-02-23T02:03:03;42.75;;;21.25;;
14294;SDS011;7231;59.370;18.016;2024-02-23T02:05:39;40.42;;;19.88;;
14294;SDS011;7231;59.370;18.016;2024-02-23T02:08:07;37.45;;;20.23;;
14294;SDS011;7231;59.370;18.016;2024-02-23T02:10:35;39.60;;;20.95;;
14294;SDS011;7231;59.370;18.016;2024-02-23T02:13:04;44.63;;;20.98;;
14294;SDS011;7231;59.370;18.016;2024-02-23T02:15:32;45.50;;;22.27;;
14294;SDS011;7231;59.370;18.016;2024-02-23T02:18:01;40.85;;;20.83;;
14294;SDS011;7231;59.370;18.016;2024-02-23T02:20:29;36.97;;;21.00;;
14294;SDS011;7231;59.370;18.016;2024-02-23T02:23:02;44.40;;;22.38;;
14294;SDS011;7231;59.370;18.016;2024-02-23T02:25:32;39.50;;;21.48;;
14294;SDS011;7231;59.370;18.016;2024-02-23T02:28:01;42.15;;;21.20;;
14294;SDS011;7231;59.370;18.016;2024-02-23T02:30:32;41.20;;;22.27;;
14294;SDS011;7231;59.370;18.016;2024-02-23T02:33:00;54.20;;;23.33;;
14294;SDS011;7231;59.370;18.016;2024-02-23T02:35:28;39.10;;;21.40;;
14294;SDS011;7231;59.370;18.016;2024-02-23T02:37:56;43.90;;;22.27;;
14294;SDS011;7231;59.370;18.016;2024-02-23T02:40:26;45.70;;;23.02;;
14294;SDS011;7231;59.370;18.016;2024-02-23T02:42:54;45.13;;;23.10;;
14294;SDS011;7231;59.370;18.016;2024-02-23T02:45:22;42.50;;;21.33;;
14294;SDS011;7231;59.370;18.016;2024-02-23T02:47:51;39.10;;;20.65;;
14294;SDS011;7231;59.370;18.016;2024-02-23T02:50:19;43.63;;;20.10;;
14294;SDS011;7231;59.370;18.016;2024-02-23T02:52:48;39.45;;;19.67;;
14294;SDS011;7231;59.370;18.016;2024-02-23T02:55:16;36.35;;;19.25;;
14294;SDS011;7231;59.370;18.016;2024-02-23T02:57:46;38.17;;;19.20;;
14294;SDS011;7231;59.370;18.016;2024-02-23T03:00:14;37.42;;;19.63;;
14294;SDS011;7231;59.370;18.016;2024-02-23T03:02:42;44.13;;;20.88;;
14294;SDS011;7231;59.370;18.016;2024-02-23T03:05:10;37.08;;;21.00;;
14294;SDS011;7231;59.370;18.016;2024-02-23T03:07:39;37.67;;;20.35;;
14294;SDS011;7231;59.370;18.016;2024-02-23T03:10:07;44.53;;;23.15;;
14294;SDS011;7231;59.370;18.016;2024-02-23T03:12:35;41.45;;;22.33;;
14294;SDS011;7231;59.370;18.016;2024-02-23T03:15:05;41.22;;;21.30;;
14294;SDS011;7231;59.370;18.016;2024-02-23T03:17:33;36.33;;;19.65;;
14294;SDS011;7231;59.370;18.016;2024-02-23T03:20:02;34.10;;;18.95;;
14294;SDS011;7231;59.370;18.016;2024-02-23T03:22:35;35.20;;;18.98;;
14294;SDS011;7231;59.370;18.016;2024-02-23T03:25:03;36.13;;;18.38;;
14294;SDS011;7231;59.370;18.016;2024-02-23T03:27:35;32.47;;;18.05;;
14294;SDS011;7231;59.370;18.016;2024-02-23T03:30:06;32.33;;;17.05;;
14294;SDS011;7231;59.370;18.016;2024-02-23T03:32:35;30.15;;;17.90;;
14294;SDS011;7231;59.370;18.016;2024-02-23T03:35:06;30.02;;;16.92;;
14294;SDS011;7231;59.370;18.016;2024-02-23T03:37:35;27.48;;;16.70;;
14294;SDS011;7231;59.370;18.016;2024-02-23T03:40:04;27.98;;;15.45;;
14294;SDS011;7231;59.370;18.016;2024-02-23T03:42:33;26.95;;;15.10;;
14294;SDS011;7231;59.370;18.016;2024-02-23T03:45:01;26.75;;;15.10;;
14294;SDS011;7231;59.370;18.016;2024-02-23T03:47:31;26.95;;;15.20;;
14294;SDS011;7231;59.370;18.016;2024-02-23T03:49:59;29.60;;;15.88;;
14294;SDS011;7231;59.370;18.016;2024-02-23T03:52:27;29.48;;;16.65;;
14294;SDS011;7231;59.370;18.016;2024-02-23T03:54:56;31.85;;;17.35;;
14294;SDS011;7231;59.370;18.016;2024-02-23T03:57:27;32.70;;;18.55;;
14294;SDS011;7231;59.370;18.016;2024-02-23T03:59:55;33.67;;;18.88;;
14294;SDS011;7231;59.370;18.016;2024-02-23T04:02:24;36.72;;;18.15;;
14294;SDS011;7231;59.370;18.016;2024-02-23T04:04:54;35.60;;;18.38;;
14294;SDS011;7231;59.370;18.016;2024-02-23T04:07:22;42.78;;;21.95;;
14294;SDS011;7231;59.370;18.016;2024-02-23T04:09:50;43.78;;;20.00;;
14294;SDS011;7231;59.370;18.016;2024-02-23T04:12:21;42.70;;;20.90;;
14294;SDS011;7231;59.370;18.016;2024-02-23T04:14:49;47.88;;;21.73;;
14294;SDS011;7231;59.370;18.016;2024-02-23T04:17:17;48.53;;;21.80;;
14294;SDS011;7231;59.370;18.016;2024-02-23T04:19:46;42.83;;;20.83;;
14294;SDS011;7231;59.370;18.016;2024-02-23T04:22:15;49.72;;;22.25;;
14294;SDS011;7231;59.370;18.016;2024-02-23T04:24:43;34.08;;;17.10;;
14294;SDS011;7231;59.370;18.016;2024-02-23T04:27:12;38.95;;;18.95;;
14294;SDS011;7231;59.370;18.016;2024-02-23T04:29:40;37.42;;;19.42;;
14294;SDS011;7231;59.370;18.016;2024-02-23T04:32:08;36.88;;;18.85;;
14294;SDS011;7231;59.370;18.016;2024-02-23T04:34:36;30.30;;;16.35;;
14294;SDS011;7231;59.370;18.016;2024-02-23T04:37:06;38.92;;;18.85;;
14294;SDS011;7231;59.370;18.016;2024-02-23T04:39:35;41.13;;;19.90;;
14294;SDS011;7231;59.370;18.016;2024-02-23T04:42:04;39.78;;;18.88;;
14294;SDS011;7231;59.370;18.016;2024-02-23T04:44:35;32.70;;;16.65;;
14294;SDS011;7231;59.370;18.016;2024-02-23T04:47:03;33.10;;;17.58;;
14294;SDS011;7231;59.370;18.016;2024-02-23T04:49:31;29.45;;;17.02;;
14294;SDS011;7231;59.370;18.016;2024-02-23T04:51:59;36.78;;;17.45;;
14294;SDS011;7231;59.370;18.016;2024-02-23T04:54:28;28.60;;;17.02;;
14294;SDS011;7231;59.370;18.016;2024-02-23T04:56:57;23.70;;;14.45;;
14294;SDS011;7231;59.370;18.016;2024-02-23T04:59:25;27.73;;;14.27;;
14294;SDS011;7231;59.370;18.016;2024-02-23T05:01:54;24.75;;;14.18;;
14294;SDS011;7231;59.370;18.016;2024-02-23T05:04:22;20.13;;;12.43;;
14294;SDS011;7231;59.370;18.016;2024-02-23T05:06:53;24.25;;;13.10;;
14294;SDS011;7231;59.370;18.016;2024-02-23T05:09:21;17.65;;;11.00;;
14294;SDS011;7231;59.370;18.016;2024-02-23T05:11:49;20.15;;;11.07;;
14294;SDS011;7231;59.370;18.016;2024-02-23T05:14:19;22.42;;;12.65;;
14294;SDS011;7231;59.370;18.016;2024-02-23T05:16:47;20.50;;;12.63;;
14294;SDS011;7231;59.370;18.016;2024-02-23T05:19:15;22.38;;;12.88;;
14294;SDS011;7231;59.370;18.016;2024-02-23T05:21:44;19.45;;;11.90;;
14294;SDS011;7231;59.370;18.016;2024-02-23T05:24:12;24.10;;;13.90;;
14294;SDS011;7231;59.370;18.016;2024-02-23T05:26:40;25.75;;;13.82;;
14294;SDS011;7231;59.370;18.016;2024-02-23T05:29:09;27.77;;;15.38;;
14294;SDS011;7231;59.370;18.016;2024-02-23T05:31:46;29.83;;;15.32;;
14294;SDS011;7231;59.370;18.016;2024-02-23T05:34:16;27.95;;;15.82;;
14294;SDS011;7231;59.370;18.016;2024-02-23T05:36:45;29.80;;;16.77;;
14294;SDS011;7231;59.370;18.016;2024-02-23T05:39:14;37.60;;;18.48;;
14294;SDS011;7231;59.370;18.016;2024-02-23T05:41:43;35.95;;;17.15;;
14294;SDS011;7231;59.370;18.016;2024-02-23T05:44:12;30.73;;;15.80;;
14294;SDS011;7231;59.370;18.016;2024-02-23T05:46:42;29.38;;;14.10;;
14294;SDS011;7231;59.370;18.016;2024-02-23T05:49:11;30.75;;;15.98;;
14294;SDS011;7231;59.370;18.016;2024-02-23T05:51:40;39.13;;;18.15;;
14294;SDS011;7231;59.370;18.016;2024-02-23T05:54:08;39.05;;;17.05;;
14294;SDS011;7231;59.370;18.016;2024-02-23T05:56:37;39.83;;;17.83;;
14294;SDS011;7231;59.370;18.016;2024-02-23T05:59:05;39.22;;;17.17;;
14294;SDS011;7231;59.370;18.016;2024-02-23T06:01:34;37.50;;;17.05;;
14294;SDS011;7231;59.370;18.016;2024-02-23T06:04:02;36.05;;;18.25;;
14294;SDS011;7231;59.370;18.016;2024-02-23T06:06:33;35.83;;;18.25;;
14294;SDS011;7231;59.370;18.016;2024-02-23T06:09:02;35.95;;;17.25;;
14294;SDS011;7231;59.370;18.016;2024-02-23T06:11:32;42.22;;;19.08;;
14294;SDS011;7231;59.370;18.016;2024-02-23T06:14:00;34.88;;;17.15;;
14294;SDS011;7231;59.370;18.016;2024-02-23T06:16:29;42.17;;;19.17;;
14294;SDS011;7231;59.370;18.016;2024-02-23T06:18:57;38.95;;;18.55;;
14294;SDS011;7231;59.370;18.016;2024-02-23T06:21:25;28.38;;;15.73;;
14294;SDS011;7231;59.370;18.016;2024-02-23T06:23:55;37.65;;;17.15;;
14294;SDS011;7231;59.370;18.016;2024-02-23T06:26:23;28.75;;;15.23;;
14294;SDS011;7231;59.370;18.016;2024-02-23T06:28:51;32.05;;;17.05;;
14294;SDS011;7231;59.370;18.016;2024-02-23T06:31:20;34.22;;;16.73;;
14294;SDS011;7231;59.370;18.016;2024-02-23T06:33:48;39.35;;;17.90;;
14294;SDS011;7231;59.370;18.016;2024-02-23T06:36:18;46.50;;;21.33;;
14294;SDS011;7231;59.370;18.016;2024-02-23T06:38:46;40.15;;;19.25;;
14294;SDS011;7231;59.370;18.016;2024-02-23T06:41:16;45.83;;;22.67;;
14294;SDS011;7231;59.370;18.016;2024-02-23T06:43:45;42.30;;;22.20;;
14294;SDS011;7231;59.370;18.016;2024-02-23T06:46:13;42.38;;;20.75;;
14294;SDS011;7231;59.370;18.016;2024-02-23T06:48:41;35.03;;;18.65;;
14294;SDS011;7231;59.370;18.016;2024-02-23T06:51:09;38.47;;;19.85;;
14294;SDS011;7231;59.370;18.016;2024-02-23T06:53:37;41.67;;;19.73;;
14294;SDS011;7231;59.370;18.016;2024-02-23T06:56:06;34.97;;;18.85;;
14294;SDS011;7231;59.370;18.016;2024-02-23T06:58:35;35.33;;;18.65;;
14294;SDS011;7231;59.370;18.016;2024-02-23T07:01:03;35.42;;;19.15;;
14294;SDS011;7231;59.370;18.016;2024-02-23T07:03:33;32.90;;;17.85;;
14294;SDS011;7231;59.370;18.016;2024-02-23T07:06:02;30.17;;;18.08;;
14294;SDS011;7231;59.370;18.016;2024-02-23T07:08:30;33.42;;;18.45;;
14294;SDS011;7231;59.370;18.016;2024-02-23T07:10:59;32.63;;;17.80;;
14294;SDS011;7231;59.370;18.016;2024-02-23T07:13:27;32.08;;;18.50;;
14294;SDS011;7231;59.370;18.016;2024-02-23T07:15:59;31.77;;;18.42;;
14294;SDS011;7231;59.370;18.016;2024-02-23T07:18:28;32.95;;;19.70;;
14294;SDS011;7231;59.370;18.016;2024-02-23T07:20:56;36.10;;;19.25;;
14294;SDS011;7231;59.370;18.016;2024-02-23T07:23:24;35.30;;;19.27;;
14294;SDS011;7231;59.370;18.016;2024-02-23T07:25:52;32.78;;;19.05;;
14294;SDS011;7231;59.370;18.016;2024-02-23T07:28:21;39.65;;;20.20;;
14294;SDS011;7231;59.370;18.016;2024-02-23T07:30:49;39.33;;;20.20;;
14294;SDS011;7231;59.370;18.016;2024-02-23T07:33:20;31.75;;;18.13;;
14294;SDS011;7231;59.370;18.016;2024-02-23T07:35:49;28.80;;;17.33;;
14294;SDS011;7231;59.370;18.016;2024-02-23T07:38:17;26.75;;;16.38;;
14294;SDS011;7231;59.370;18.016;2024-02-23T07:40:46;25.85;;;16.95;;
14294;SDS011;7231;59.370;18.016;2024-02-23T07:43:14;26.45;;;16.60;;
14294;SDS011;7231;59.370;18.016;2024-02-23T07:45:42;25.85;;;16.02;;
14294;SDS011;7231;59.370;18.016;2024-02-23T07:48:10;23.25;;;15.38;;
14294;SDS011;7231;59.370;18.016;2024-02-23T07:50:40;19.45;;;13.73;;
14294;SDS011;7231;59.370;18.016;2024-02-23T07:53:09;22.95;;;13.80;;
14294;SDS011;7231;59.370;18.016;2024-02-23T07:55:37;21.67;;;13.40;;
14294;SDS011;7231;59.370;18.016;2024-02-23T07:58:05;18.25;;;12.50;;
14294;SDS011;7231;59.370;18.016;2024-02-23T08:00:33;17.35;;;12.18;;
14294;SDS011;7231;59.370;18.016;2024-02-23T08:03:04;22.13;;;12.40;;
14294;SDS011;7231;59.370;18.016;2024-02-23T08:05:34;16.92;;;11.82;;
14294;SDS011;7231;59.370;18.016;2024-02-23T08:08:05;15.02;;;10.20;;
14294;SDS011;7231;59.370;18.016;2024-02-23T08:10:34;19.52;;;12.63;;
14294;SDS011;7231;59.370;18.016;2024-02-23T08:13:02;17.88;;;12.60;;
14294;SDS011;7231;59.370;18.016;2024-02-23T08:15:31;18.48;;;12.55;;
14294;SDS011;7231;59.370;18.016;2024-02-23T08:18:02;19.23;;;13.30;;
14294;SDS011;7231;59.370;18.016;2024-02-23T08:20:30;23.08;;;15.68;;
14294;SDS011;7231;59.370;18.016;2024-02-23T08:22:58;26.65;;;17.20;;
14294;SDS011;7231;59.370;18.016;2024-02-23T08:25:28;29.70;;;17.33;;
14294;SDS011;7231;59.370;18.016;2024-02-23T08:27:56;23.58;;;14.07;;
14294;SDS011;7231;59.370;18.016;2024-02-23T08:30:25;18.42;;;12.07;;
14294;SDS011;7231;59.370;18.016;2024-02-23T08:32:53;26.90;;;16.55;;
14294;SDS011;7231;59.370;18.016;2024-02-23T08:35:21;27.55;;;17.17;;
14294;SDS011;7231;59.370;18.016;2024-02-23T08:37:50;29.45;;;17.42;;
14294;SDS011;7231;59.370;18.016;2024-02-23T08:40:18;26.48;;;18.13;;
14294;SDS011;7231;59.370;18.016;2024-02-23T08:42:47;27.40;;;17.05;;
14294;SDS011;7231;59.370;18.016;2024-02-23T08:45:16;26.95;;;16.25;;
14294;SDS011;7231;59.370;18.016;2024-02-23T08:47:44;19.58;;;13.50;;
14294;SDS011;7231;59.370;18.016;2024-02-23T08:50:13;24.00;;;15.88;;
14294;SDS011;7231;59.370;18.016;2024-02-23T08:52:42;21.15;;;13.63;;
14294;SDS011;7231;59.370;18.016;2024-02-23T08:55:10;20.45;;;13.43;;
14294;SDS011;7231;59.370;18.016;2024-02-23T08:57:39;22.83;;;13.82;;
14294;SDS011;7231;59.370;18.016;2024-02-23T09:00:09;16.95;;;12.15;;
14294;SDS011;7231;59.370;18.016;2024-02-23T09:02:43;16.92;;;12.50;;
14294;SDS011;7231;59.370;18.016;2024-02-23T09:05:11;16.85;;;10.68;;
14294;SDS011;7231;59.370;18.016;2024-02-23T09:07:40;17.58;;;11.25;;
14294;SDS011;7231;59.370;18.016;2024-02-23T09:10:09;15.32;;;10.82;;
14294;SDS011;7231;59.370;18.016;2024-02-23T09:12:38;14.82;;;11.23;;
14294;SDS011;7231;59.370;18.016;2024-02-23T09:15:07;16.23;;;11.55;;
14294;SDS011;7231;59.370;18.016;2024-02-23T09:17:37;19.75;;;12.52;;
14294;SDS011;7231;59.370;18.016;2024-02-23T09:20:07;17.85;;;12.27;;
14294;SDS011;7231;59.370;18.016;2024-02-23T09:22:36;17.58;;;12.85;;
14294;SDS011;7231;59.370;18.016;2024-02-23T09:25:06;19.55;;;13.52;;
14294;SDS011;7231;59.370;18.016;2024-02-23T09:27:35;17.55;;;11.95;;
14294;SDS011;7231;59.370;18.016;2024-02-23T09:30:12;18.23;;;12.05;;
14294;SDS011;7231;59.370;18.016;2024-02-23T09:32:41;19.17;;;12.88;;
14294;SDS011;7231;59.370;18.016;2024-02-23T09:35:09;20.35;;;13.23;;
14294;SDS011;7231;59.370;18.016;2024-02-23T09:37:37;20.70;;;13.75;;
14294;SDS011;7231;59.370;18.016;2024-02-23T09:40:06;17.98;;;13.02;;
14294;SDS011;7231;59.370;18.016;2024-02-23T09:42:35;18.52;;;12.77;;
14294;SDS011;7231;59.370;18.016;2024-02-23T09:45:05;24.20;;;13.35;;
14294;SDS011;7231;59.370;18.016;2024-02-23T09:47:36;17.80;;;13.07;;
14294;SDS011;7231;59.370;18.016;2024-02-23T09:50:05;16.63;;;12.88;;
14294;SDS011;7231;59.370;18.016;2024-02-23T09:52:36;17.92;;;12.63;;
14294;SDS011;7231;59.370;18.016;2024-02-23T09:55:04;17.50;;;12.27;;
14294;SDS011;7231;59.370;18.016;2024-02-23T09:57:33;17.55;;;12.18;;
14294;SDS011;7231;59.370;18.016;2024-02-23T10:00:02;14.63;;;11.27;;
14294;SDS011;7231;59.370;18.016;2024-02-23T10:02:33;17.38;;;10.98;;
14294;SDS011;7231;59.370;18.016;2024-02-23T10:05:04;11.32;;;9.32;;
14294;SDS011;7231;59.370;18.016;2024-02-23T10:07:34;10.15;;;8.52;;
14294;SDS011;7231;59.370;18.016;2024-02-23T10:10:02;10.88;;;8.10;;
14294;SDS011;7231;59.370;18.016;2024-02-23T10:12:34;10.07;;;8.15;;
14294;SDS011;7231;59.370;18.016;2024-02-23T10:15:03;14.05;;;8.00;;
14294;SDS011;7231;59.370;18.016;2024-02-23T10:17:31;10.32;;;6.20;;
14294;SDS011;7231;59.370;18.016;2024-02-23T10:20:04;8.40;;;5.57;;
14294;SDS011;7231;59.370;18.016;2024-02-23T10:22:33;5.78;;;4.10;;
14294;SDS011;7231;59.370;18.016;2024-02-23T10:25:03;8.45;;;4.55;;
14294;SDS011;7231;59.370;18.016;2024-02-23T10:27:31;5.25;;;3.83;;
14294;SDS011;7231;59.370;18.016;2024-02-23T10:29:59;8.80;;;3.53;;
14294;SDS011;7231;59.370;18.016;2024-02-23T10:32:29;5.32;;;3.20;;
14294;SDS011;7231;59.370;18.016;2024-02-23T10:34:59;6.55;;;2.72;;
14294;SDS011;7231;59.370;18.016;2024-02-23T10:37:32;4.20;;;2.20;;
14294;SDS011;7231;59.370;18.016;2024-02-23T10:40:01;3.33;;;2.15;;
14294;SDS011;7231;59.370;18.016;2024-02-23T10:42:36;2.28;;;1.98;;
14294;SDS011;7231;59.370;18.016;2024-02-23T10:45:06;2.95;;;1.70;;
14294;SDS011;7231;59.370;18.016;2024-02-23T10:47:34;2.90;;;1.88;;
14294;SDS011;7231;59.370;18.016;2024-02-23T10:50:04;3.10;;;1.75;;
14294;SDS011;7231;59.370;18.016;2024-02-23T10:52:36;3.20;;;1.77;;
14294;SDS011;7231;59.370;18.016;2024-02-23T10:55:05;2.45;;;1.30;;
14294;SDS011;7231;59.370;18.016;2024-02-23T10:57:36;2.00;;;1.20;;
14294;SDS011;7231;59.370;18.016;2024-02-23T11:00:07;2.78;;;1.35;;
14294;SDS011;7231;59.370;18.016;2024-02-23T11:02:38;2.90;;;0.90;;
14294;SDS011;7231;59.370;18.016;2024-02-23T11:05:11;2.42;;;1.25;;
14294;SDS011;7231;59.370;18.016;2024-02-23T11:07:42;2.33;;;1.00;;
14294;SDS011;7231;59.370;18.016;2024-02-23T11:10:13;1.88;;;0.70;;
14294;SDS011;7231;59.370;18.016;2024-02-23T11:12:41;1.48;;;0.77;;
14294;SDS011;7231;59.370;18.016;2024-02-23T11:15:09;2.10;;;0.90;;
14294;SDS011;7231;59.370;18.016;2024-02-23T11:17:54;1.73;;;0.60;;
14294;SDS011;7231;59.370;18.016;2024-02-23T11:20:23;1.83;;;0.57;;
14294;SDS011;7231;59.370;18.016;2024-02-23T11:22:57;3.35;;;0.80;;
14294;SDS011;7231;59.370;18.016;2024-02-23T11:25:26;2.33;;;0.98;;
14294;SDS011;7231;59.370;18.016;2024-02-23T11:27:54;1.77;;;0.70;;
14294;SDS011;7231;59.370;18.016;2024-02-23T11:30:23;1.58;;;0.65;;
14294;SDS011;7231;59.370;18.016;2024-02-23T11:32:57;0.88;;;0.68;;
14294;SDS011;7231;59.370;18.016;2024-02-23T11:35:27;1.90;;;0.80;;
14294;SDS011;7231;59.370;18.016;2024-02-23T11:37:56;2.67;;;0.80;;
14294;SDS011;7231;59.370;18.016;2024-02-23T11:40:27;1.35;;;0.63;;
14294;SDS011;7231;59.370;18.016;2024-02-23T11:42:56;0.60;;;0.50;;
14294;SDS011;7231;59.370;18.016;2024-02-23T11:45:27;1.80;;;0.60;;
14294;SDS011;7231;59.370;18.016;2024-02-23T11:47:57;2.70;;;0.70;;
14294;SDS011;7231;59.370;18.016;2024-02-23T11:50:26;1.98;;;0.60;;
14294;SDS011;7231;59.370;18.016;2024-02-23T11:52:54;1.80;;;0.57;;
14294;SDS011;7231;59.370;18.016;2024-02-23T11:55:26;3.38;;;0.75;;
14294;SDS011;7231;59.370;18.016;2024-02-23T11:57:55;1.85;;;0.50;;
14294;SDS011;7231;59.370;18.016;2024-02-23T12:00:33;2.08;;;0.80;;
14294;SDS011;7231;59.370;18.016;2024-02-23T12:03:02;2.63;;;0.60;;
14294;SDS011;7231;59.370;18.016;2024-02-23T12:05:32;2.40;;;0.70;;
14294;SDS011;7231;59.370;18.016;2024-02-23T12:08:00;2.80;;;0.68;;
14294;SDS011;7231;59.370;18.016;2024-02-23T12:10:30;1.95;;;0.57;;
14294;SDS011;7231;59.370;18.016;2024-02-23T12:12:59;3.83;;;0.80;;
14294;SDS011;7231;59.370;18.016;2024-02-23T12:15:27;0.93;;;0.50;;
14294;SDS011;7231;59.370;18.016;2024-02-23T12:17:57;2.20;;;0.73;;
14294;SDS011;7231;59.370;18.016;2024-02-23T12:20:26;4.75;;;0.68;;
14294;SDS011;7231;59.370;18.016;2024-02-23T12:22:55;1.10;;;0.55;;
14294;SDS011;7231;59.370;18.016;2024-02-23T12:25:23;2.67;;;0.63;;
14294;SDS011;7231;59.370;18.016;2024-02-23T12:27:57;3.05;;;0.90;;
14294;SDS011;7231;59.370;18.016;2024-02-23T12:30:25;3.53;;;0.80;;
14294;SDS011;7231;59.370;18.016;2024-02-23T12:33:02;2.90;;;0.80;;
14294;SDS011;7231;59.370;18.016;2024-02-23T12:35:33;3.15;;;0.82;;
14294;SDS011;7231;59.370;18.016;2024-02-23T12:38:02;3.15;;;0.75;;
14294;SDS011;7231;59.370;18.016;2024-02-23T12:40:31;1.75;;;0.57;;
14294;SDS011;7231;59.370;18.016;2024-02-23T12:43:00;3.03;;;0.80;;
14294;SDS011;7231;59.370;18.016;2024-02-23T12:45:28;2.63;;;0.55;;
14294;SDS011;7231;59.370;18.016;2024-02-23T12:47:56;2.33;;;0.70;;
14294;SDS011;7231;59.370;18.016;2024-02-23T12:50:25;3.55;;;0.70;;
14294;SDS011;7231;59.370;18.016;2024-02-23T12:52:53;1.60;;;0.63;;
14294;SDS011;7231;59.370;18.016;2024-02-23T12:55:21;3.95;;;0.65;;
14294;SDS011;7231;59.370;18.016;2024-02-23T12:57:49;3.08;;;0.95;;
14294;SDS011;7231;59.370;18.016;2024-02-23T13:00:19;3.33;;;0.60;;
14294;SDS011;7231;59.370;18.016;2024-02-23T13:02:47;3.22;;;0.70;;
14294;SDS011;7231;59.370;18.016;2024-02-23T13:05:18;4.22;;;0.93;;
14294;SDS011;7231;59.370;18.016;2024-02-23T13:07:46;6.18;;;0.80;;
14294;SDS011;7231;59.370;18.016;2024-02-23T13:10:15;2.95;;;0.52;;
14294;SDS011;7231;59.370;18.016;2024-02-23T13:12:44;6.05;;;1.60;;
14294;SDS011;7231;59.370;18.016;2024-02-23T13:15:13;3.30;;;0.80;;
14294;SDS011;7231;59.370;18.016;2024-02-23T13:17:46;8.63;;;0.98;;
14294;SDS011;7231;59.370;18.016;2024-02-23T13:20:16;4.95;;;1.00;;
14294;SDS011;7231;59.370;18.016;2024-02-23T13:22:45;3.75;;;0.90;;
14294;SDS011;7231;59.370;18.016;2024-02-23T13:25:13;2.38;;;0.75;;
14294;SDS011;7231;59.370;18.016;2024-02-23T13:27:41;4.78;;;1.13;;
14294;SDS011;7231;59.370;18.016;2024-02-23T13:30:10;1.92;;;0.70;;
14294;SDS011;7231;59.370;18.016;2024-02-23T13:32:39;4.20;;;1.02;;
14294;SDS011;7231;59.370;18.016;2024-02-23T13:35:08;5.18;;;1.50;;
14294;SDS011;7231;59.370;18.016;2024-02-23T13:37:37;6.00;;;0.93;;
14294;SDS011;7231;59.370;18.016;2024-02-23T13:40:06;3.05;;;0.88;;
14294;SDS011;7231;59.370;18.016;2024-02-23T13:42:36;6.45;;;1.08;;
14294;SDS011;7231;59.370;18.016;2024-02-23T13:45:06;3.05;;;0.80;;
14294;SDS011;7231;59.370;18.016;2024-02-23T13:47:35;4.97;;;1.25;;
14294;SDS011;7231;59.370;18.016;2024-02-23T13:50:03;2.92;;;0.70;;
14294;SDS011;7231;59.370;18.016;2024-02-23T13:52:33;4.38;;;0.93;;
14294;SDS011;7231;59.370;18.016;2024-02-23T13:55:03;5.03;;;1.27;;
14294;SDS011;7231;59.370;18.016;2024-02-23T13:57:32;5.10;;;0.90;;
14294;SDS011;7231;59.370;18.016;2024-02-23T14:00:00;3.30;;;0.77;;
14294;SDS011;7231;59.370;18.016;2024-02-23T14:02:29;3.75;;;0.70;;
14294;SDS011;7231;59.370;18.016;2024-02-23T14:05:01;5.15;;;1.27;;
14294;SDS011;7231;59.370;18.016;2024-02-23T14:07:32;5.75;;;1.17;;
14294;SDS011;7231;59.370;18.016;2024-02-23T14:10:02;3.45;;;1.00;;
14294;SDS011;7231;59.370;18.016;2024-02-23T14:12:30;3.28;;;1.00;;
14294;SDS011;7231;59.370;18.016;2024-02-23T14:14:58;5.45;;;0.85;;
14294;SDS011;7231;59.370;18.016;2024-02-23T14:17:26;3.50;;;0.90;;
14294;SDS011;7231;59.370;18.016;2024-02-23T14:19:55;2.30;;;0.90;;
14294;SDS011;7231;59.370;18.016;2024-02-23T14:22:23;4.15;;;0.80;;
14294;SDS011;7231;59.370;18.016;2024-02-23T14:24:53;3.72;;;1.02;;
14294;SDS011;7231;59.370;18.016;2024-02-23T14:27:21;6.43;;;1.60;;
14294;SDS011;7231;59.370;18.016;2024-02-23T14:29:49;3.53;;;1.05;;
14294;SDS011;7231;59.370;18.016;2024-02-23T14:32:18;5.43;;;0.90;;
14294;SDS011;7231;59.370;18.016;2024-02-23T14:34:47;3.53;;;0.82;;
14294;SDS011;7231;59.370;18.016;2024-02-23T14:37:16;4.55;;;1.08;;
14294;SDS011;7231;59.370;18.016;2024-02-23T14:39:44;4.30;;;1.05;;